sensor_id;sensor_type;location;lat;lon;timestamp;temperature;humidity
19999;DHT22;10160;50.926;4.374;2022-08-06T00:00:31;15.30;99.90
19999;DHT22;10160;50.926;4.374;2022-08-06T00:02:57;15.40;99.90
19999;DHT22;10160;50.926;4.374;2022-08-06T00:05:22;15.70;99.90
19999;DHT22;10160;50.926;4.374;2022-08-06T00:07:48;15.60;99.90
19999;DHT22;10160;50.926;4.374;2022-08-06T00:10:18;15.50;99.90
19999;DHT22;10160;50.926;4.374;2022-08-06T00:12:44;15.40;99.90
19999;DHT22;10160;50.926;4.374;2022-08-06T00:15:10;15.30;99.90
19999;DHT22;10160;50.926;4.374;2022-08-06T00:17:36;15.40;99.90
19999;DHT22;10160;50.926;4.374;2022-08-06T00:20:05;15.20;99.90
19999;DHT22;10160;50.926;4.374;2022-08-06T00:22:31;15.10;99.90
19999;DHT22;10160;50.926;4.374;2022-08-06T00:24:57;15.00;99.90
19999;DHT22;10160;50.926;4.374;2022-08-06T00:27:23;15.00;99.90
19999;DHT22;10160;50.926;4.374;2022-08-06T00:29:48;14.90;99.90
19999;DHT22;10160;50.926;4.374;2022-08-06T00:32:15;14.90;99.90
19999;DHT22;10160;50.926;4.374;2022-08-06T00:34:41;14.80;99.90
19999;DHT22;10160;50.926;4.374;2022-08-06T00:37:06;14.60;99.90
19999;DHT22;10160;50.926;4.374;2022-08-06T00:39:32;14.50;99.90
19999;DHT22;10160;50.926;4.374;2022-08-06T00:41:58;14.40;99.90
19999;DHT22;10160;50.926;4.374;2022-08-06T00:44:24;14.30;99.90
19999;DHT22;10160;50.926;4.374;2022-08-06T00:46:50;14.10;99.90
19999;DHT22;10160;50.926;4.374;2022-08-06T00:49:17;14.10;99.90
19999;DHT22;10160;50.926;4.374;2022-08-06T00:51:43;14.00;99.90
19999;DHT22;10160;50.926;4.374;2022-08-06T00:54:09;14.20;99.90
19999;DHT22;10160;50.926;4.374;2022-08-06T00:56:34;14.00;99.90
19999;DHT22;10160;50.926;4.374;2022-08-06T00:59:00;14.00;99.90
19999;DHT22;10160;50.926;4.374;2022-08-06T01:01:26;14.10;99.90
19999;DHT22;10160;50.926;4.374;2022-08-06T01:03:51;14.10;99.90
19999;DHT22;10160;50.926;4.374;2022-08-06T01:06:20;14.00;99.90
19999;DHT22;10160;50.926;4.374;2022-08-06T01:08:46;13.70;99.90
19999;DHT22;10160;50.926;4.374;2022-08-06T01:11:12;13.40;99.90
19999;DHT22;10160;50.926;4.374;2022-08-06T01:13:38;13.30;99.90
19999;DHT22;10160;50.926;4.374;2022-08-06T01:16:15;13.20;99.90
19999;DHT22;10160;50.926;4.374;2022-08-06T01:19:14;13.10;99.90
19999;DHT22;10160;50.926;4.374;2022-08-06T01:27:38;13.20;99.90
19999;DHT22;10160;50.926;4.374;2022-08-06T01:30:09;13.00;99.90
19999;DHT22;10160;50.926;4.374;2022-08-06T01:32:48;12.90;99.90
19999;DHT22;10160;50.926;4.374;2022-08-06T01:35:27;12.80;99.90
19999;DHT22;10160;50.926;4.374;2022-08-06T01:38:01;12.90;99.90
19999;DHT22;10160;50.926;4.374;2022-08-06T01:40:34;12.80;99.90
19999;DHT22;10160;50.926;4.374;2022-08-06T01:43:05;12.90;99.90
19999;DHT22;10160;50.926;4.374;2022-08-06T01:45:33;13.00;99.90
19999;DHT22;10160;50.926;4.374;2022-08-06T01:48:06;13.30;99.90
19999;DHT22;10160;50.926;4.374;2022-08-06T01:50:39;13.40;99.90
19999;DHT22;10160;50.926;4.374;2022-08-06T01:53:08;13.60;99.90
19999;DHT22;10160;50.926;4.374;2022-08-06T01:55:42;13.70;99.90
19999;DHT22;10160;50.926;4.374;2022-08-06T01:58:10;13.90;99.90
19999;DHT22;10160;50.926;4.374;2022-08-06T02:00:40;13.90;99.90
19999;DHT22;10160;50.926;4.374;2022-08-06T02:03:15;13.90;99.90
19999;DHT22;10160;50.926;4.374;2022-08-06T02:05:43;13.90;99.90
19999;DHT22;10160;50.926;4.374;2022-08-06T02:08:11;14.00;99.90
19999;DHT22;10160;50.926;4.374;2022-08-06T02:10:38;13.90;99.90
19999;DHT22;10160;50.926;4.374;2022-08-06T02:13:05;14.10;99.90
19999;DHT22;10160;50.926;4.374;2022-08-06T02:15:35;14.30;99.90
19999;DHT22;10160;50.926;4.374;2022-08-06T02:18:05;14.30;99.90
19999;DHT22;10160;50.926;4.374;2022-08-06T02:20:34;14.30;99.90
19999;DHT22;10160;50.926;4.374;2022-08-06T02:23:04;14.20;99.90
19999;DHT22;10160;50.926;4.374;2022-08-06T02:25:31;14.10;99.90
19999;DHT22;10160;50.926;4.374;2022-08-06T02:28:00;14.10;99.90
19999;DHT22;10160;50.926;4.374;2022-08-06T02:30:32;14.10;99.90
19999;DHT22;10160;50.926;4.374;2022-08-06T02:33:00;14.00;99.90
19999;DHT22;10160;50.926;4.374;2022-08-06T02:35:26;13.80;99.90
19999;DHT22;10160;50.926;4.374;2022-08-06T02:37:59;14.00;99.90
19999;DHT22;10160;50.926;4.374;2022-08-06T02:40:35;14.10;99.90
19999;DHT22;10160;50.926;4.374;2022-08-06T02:43:18;14.30;99.90
19999;DHT22;10160;50.926;4.374;2022-08-06T02:46:07;14.20;99.90
19999;DHT22;10160;50.926;4.374;2022-08-06T02:48:49;14.10;99.90
19999;DHT22;10160;50.926;4.374;2022-08-06T02:51:19;14.00;99.90
19999;DHT22;10160;50.926;4.374;2022-08-06T02:54:28;14.00;99.90
19999;DHT22;10160;50.926;4.374;2022-08-06T02:56:58;14.00;99.90
19999;DHT22;10160;50.926;4.374;2022-08-06T02:59:34;14.00;99.90
19999;DHT22;10160;50.926;4.374;2022-08-06T03:02:01;14.10;99.90
19999;DHT22;10160;50.926;4.374;2022-08-06T03:04:29;14.10;99.90
19999;DHT22;10160;50.926;4.374;2022-08-06T03:06:58;14.10;99.90
19999;DHT22;10160;50.926;4.374;2022-08-06T03:09:25;13.80;99.90
19999;DHT22;10160;50.926;4.374;2022-08-06T03:11:52;13.80;99.90
19999;DHT22;10160;50.926;4.374;2022-08-06T03:14:19;13.90;99.90
19999;DHT22;10160;50.926;4.374;2022-08-06T03:16:47;14.00;99.90
19999;DHT22;10160;50.926;4.374;2022-08-06T03:19:14;13.90;99.90
19999;DHT22;10160;50.926;4.374;2022-08-06T03:21:41;13.70;99.90
19999;DHT22;10160;50.926;4.374;2022-08-06T03:24:08;13.70;99.90
19999;DHT22;10160;50.926;4.374;2022-08-06T03:26:35;13.80;99.90
19999;DHT22;10160;50.926;4.374;2022-08-06T03:29:02;13.90;99.90
19999;DHT22;10160;50.926;4.374;2022-08-06T03:31:29;14.10;99.90
19999;DHT22;10160;50.926;4.374;2022-08-06T03:33:56;14.20;99.90
19999;DHT22;10160;50.926;4.374;2022-08-06T03:36:23;14.20;99.90
19999;DHT22;10160;50.926;4.374;2022-08-06T03:39:02;14.10;99.90
19999;DHT22;10160;50.926;4.374;2022-08-06T03:41:30;13.90;99.90
19999;DHT22;10160;50.926;4.374;2022-08-06T03:43:58;13.90;99.90
19999;DHT22;10160;50.926;4.374;2022-08-06T03:46:41;14.00;99.90
19999;DHT22;10160;50.926;4.374;2022-08-06T03:49:12;13.90;99.90
19999;DHT22;10160;50.926;4.374;2022-08-06T03:51:39;13.90;99.90
19999;DHT22;10160;50.926;4.374;2022-08-06T03:54:06;13.80;99.90
19999;DHT22;10160;50.926;4.374;2022-08-06T03:56:35;13.80;99.90
19999;DHT22;10160;50.926;4.374;2022-08-06T03:59:04;14.00;99.90
19999;DHT22;10160;50.926;4.374;2022-08-06T04:01:34;13.90;99.90
19999;DHT22;10160;50.926;4.374;2022-08-06T04:04:01;14.00;99.90
19999;DHT22;10160;50.926;4.374;2022-08-06T04:06:28;14.00;99.90
19999;DHT22;10160;50.926;4.374;2022-08-06T04:08:55;14.20;99.90
19999;DHT22;10160;50.926;4.374;2022-08-06T04:11:21;14.00;99.90
19999;DHT22;10160;50.926;4.374;2022-08-06T04:13:47;14.00;99.90
19999;DHT22;10160;50.926;4.374;2022-08-06T04:16:14;13.80;99.90
19999;DHT22;10160;50.926;4.374;2022-08-06T04:18:42;13.80;99.90
19999;DHT22;10160;50.926;4.374;2022-08-06T04:21:18;13.80;99.90
19999;DHT22;10160;50.926;4.374;2022-08-06T04:23:44;13.80;99.90
19999;DHT22;10160;50.926;4.374;2022-08-06T04:26:13;13.70;99.90
19999;DHT22;10160;50.926;4.374;2022-08-06T04:28:42;13.60;99.90
19999;DHT22;10160;50.926;4.374;2022-08-06T04:31:08;13.70;99.90
19999;DHT22;10160;50.926;4.374;2022-08-06T04:33:35;13.80;99.90
19999;DHT22;10160;50.926;4.374;2022-08-06T04:36:02;13.90;99.90
19999;DHT22;10160;50.926;4.374;2022-08-06T04:38:31;14.00;99.90
19999;DHT22;10160;50.926;4.374;2022-08-06T04:40:59;14.10;99.90
19999;DHT22;10160;50.926;4.374;2022-08-06T04:43:25;14.20;99.90
19999;DHT22;10160;50.926;4.374;2022-08-06T04:45:51;14.30;99.90
19999;DHT22;10160;50.926;4.374;2022-08-06T04:48:17;14.10;99.90
19999;DHT22;10160;50.926;4.374;2022-08-06T04:50:43;14.10;99.90
19999;DHT22;10160;50.926;4.374;2022-08-06T04:53:12;14.40;99.90
19999;DHT22;10160;50.926;4.374;2022-08-06T04:55:38;14.30;99.90
19999;DHT22;10160;50.926;4.374;2022-08-06T04:58:09;14.40;99.90
19999;DHT22;10160;50.926;4.374;2022-08-06T05:00:37;14.50;99.90
19999;DHT22;10160;50.926;4.374;2022-08-06T05:03:03;14.60;99.90
19999;DHT22;10160;50.926;4.374;2022-08-06T05:05:37;14.70;99.90
19999;DHT22;10160;50.926;4.374;2022-08-06T05:08:05;14.60;99.90
19999;DHT22;10160;50.926;4.374;2022-08-06T05:10:41;14.50;99.90
19999;DHT22;10160;50.926;4.374;2022-08-06T05:13:12;14.70;99.90
19999;DHT22;10160;50.926;4.374;2022-08-06T05:15:41;14.80;99.90
19999;DHT22;10160;50.926;4.374;2022-08-06T05:18:13;14.90;99.90
19999;DHT22;10160;50.926;4.374;2022-08-06T05:20:41;15.00;99.90
19999;DHT22;10160;50.926;4.374;2022-08-06T05:23:17;14.80;99.90
19999;DHT22;10160;50.926;4.374;2022-08-06T05:25:43;14.60;99.90
19999;DHT22;10160;50.926;4.374;2022-08-06T05:28:09;14.30;99.90
19999;DHT22;10160;50.926;4.374;2022-08-06T05:30:45;14.40;99.90
19999;DHT22;10160;50.926;4.374;2022-08-06T05:33:21;14.60;99.90
19999;DHT22;10160;50.926;4.374;2022-08-06T05:35:47;14.40;99.90
19999;DHT22;10160;50.926;4.374;2022-08-06T05:38:12;14.50;99.90
19999;DHT22;10160;50.926;4.374;2022-08-06T05:40:39;14.70;99.90
19999;DHT22;10160;50.926;4.374;2022-08-06T05:43:05;14.80;99.90
19999;DHT22;10160;50.926;4.374;2022-08-06T05:45:31;14.70;99.90
19999;DHT22;10160;50.926;4.374;2022-08-06T05:47:58;15.00;99.90
19999;DHT22;10160;50.926;4.374;2022-08-06T05:50:31;14.90;99.90
19999;DHT22;10160;50.926;4.374;2022-08-06T05:53:02;15.10;99.90
19999;DHT22;10160;50.926;4.374;2022-08-06T05:55:50;15.20;99.90
19999;DHT22;10160;50.926;4.374;2022-08-06T05:58:27;15.40;99.90
19999;DHT22;10160;50.926;4.374;2022-08-06T06:00:54;15.60;99.90
19999;DHT22;10160;50.926;4.374;2022-08-06T06:03:23;15.80;99.90
19999;DHT22;10160;50.926;4.374;2022-08-06T06:05:49;15.90;99.90
19999;DHT22;10160;50.926;4.374;2022-08-06T06:08:16;16.00;99.90
19999;DHT22;10160;50.926;4.374;2022-08-06T06:10:44;16.00;99.90
19999;DHT22;10160;50.926;4.374;2022-08-06T06:13:11;16.10;99.90
19999;DHT22;10160;50.926;4.374;2022-08-06T06:15:42;16.10;99.90
19999;DHT22;10160;50.926;4.374;2022-08-06T06:21:20;15.90;99.90
19999;DHT22;10160;50.926;4.374;2022-08-06T06:24:05;16.00;99.90
19999;DHT22;10160;50.926;4.374;2022-08-06T06:27:05;16.30;99.90
19999;DHT22;10160;50.926;4.374;2022-08-06T06:32:41;16.20;99.90
19999;DHT22;10160;50.926;4.374;2022-08-06T06:43:43;16.80;99.90
19999;DHT22;10160;50.926;4.374;2022-08-06T06:46:22;16.90;99.90
19999;DHT22;10160;50.926;4.374;2022-08-06T06:48:56;17.10;99.90
19999;DHT22;10160;50.926;4.374;2022-08-06T06:51:40;17.30;99.90
19999;DHT22;10160;50.926;4.374;2022-08-06T06:54:08;17.60;99.90
19999;DHT22;10160;50.926;4.374;2022-08-06T06:56:39;17.70;99.90
19999;DHT22;10160;50.926;4.374;2022-08-06T06:59:20;17.70;99.90
19999;DHT22;10160;50.926;4.374;2022-08-06T07:01:47;17.40;99.90
19999;DHT22;10160;50.926;4.374;2022-08-06T07:04:16;17.60;99.90
19999;DHT22;10160;50.926;4.374;2022-08-06T07:06:44;17.80;99.90
19999;DHT22;10160;50.926;4.374;2022-08-06T07:09:17;17.90;99.90
19999;DHT22;10160;50.926;4.374;2022-08-06T07:11:44;18.10;99.90
19999;DHT22;10160;50.926;4.374;2022-08-06T07:14:11;18.20;99.90
19999;DHT22;10160;50.926;4.374;2022-08-06T07:16:37;18.40;99.90
19999;DHT22;10160;50.926;4.374;2022-08-06T07:19:06;18.50;99.90
19999;DHT22;10160;50.926;4.374;2022-08-06T07:21:32;18.70;99.90
19999;DHT22;10160;50.926;4.374;2022-08-06T07:23:59;18.80;99.90
19999;DHT22;10160;50.926;4.374;2022-08-06T07:26:26;18.80;99.90
19999;DHT22;10160;50.926;4.374;2022-08-06T07:28:53;18.90;99.90
19999;DHT22;10160;50.926;4.374;2022-08-06T07:31:23;18.90;99.90
19999;DHT22;10160;50.926;4.374;2022-08-06T07:33:50;19.00;99.90
19999;DHT22;10160;50.926;4.374;2022-08-06T07:36:18;18.80;99.90
19999;DHT22;10160;50.926;4.374;2022-08-06T07:38:47;19.00;99.90
19999;DHT22;10160;50.926;4.374;2022-08-06T07:41:13;19.00;99.90
19999;DHT22;10160;50.926;4.374;2022-08-06T07:43:51;19.10;99.90
19999;DHT22;10160;50.926;4.374;2022-08-06T07:46:21;19.20;99.90
19999;DHT22;10160;50.926;4.374;2022-08-06T07:48:54;19.10;99.90
19999;DHT22;10160;50.926;4.374;2022-08-06T07:51:28;19.10;99.90
19999;DHT22;10160;50.926;4.374;2022-08-06T07:53:55;19.20;99.90
19999;DHT22;10160;50.926;4.374;2022-08-06T07:56:22;19.40;99.90
19999;DHT22;10160;50.926;4.374;2022-08-06T07:58:50;19.50;99.90
19999;DHT22;10160;50.926;4.374;2022-08-06T08:01:16;19.60;99.90
19999;DHT22;10160;50.926;4.374;2022-08-06T08:03:43;19.70;99.90
19999;DHT22;10160;50.926;4.374;2022-08-06T08:06:28;19.80;99.90
19999;DHT22;10160;50.926;4.374;2022-08-06T08:09:02;19.90;99.90
19999;DHT22;10160;50.926;4.374;2022-08-06T08:11:29;20.00;99.90
19999;DHT22;10160;50.926;4.374;2022-08-06T08:13:56;20.10;99.90
19999;DHT22;10160;50.926;4.374;2022-08-06T08:16:23;20.00;99.90
19999;DHT22;10160;50.926;4.374;2022-08-06T08:18:51;20.10;99.90
19999;DHT22;10160;50.926;4.374;2022-08-06T08:21:18;20.10;99.90
19999;DHT22;10160;50.926;4.374;2022-08-06T08:23:45;20.20;99.90
19999;DHT22;10160;50.926;4.374;2022-08-06T08:26:11;20.10;99.90
19999;DHT22;10160;50.926;4.374;2022-08-06T08:28:37;20.20;99.90
19999;DHT22;10160;50.926;4.374;2022-08-06T08:31:03;20.10;99.90
19999;DHT22;10160;50.926;4.374;2022-08-06T08:33:32;20.20;99.90
19999;DHT22;10160;50.926;4.374;2022-08-06T10:03:13;20.10;99.90
19999;DHT22;10160;50.926;4.374;2022-08-06T10:05:45;20.60;99.90
19999;DHT22;10160;50.926;4.374;2022-08-06T10:08:18;21.00;99.90
19999;DHT22;10160;50.926;4.374;2022-08-06T10:31:15;22.20;99.90
19999;DHT22;10160;50.926;4.374;2022-08-06T10:36:22;23.20;99.90
19999;DHT22;10160;50.926;4.374;2022-08-06T10:39:40;23.80;99.90
19999;DHT22;10160;50.926;4.374;2022-08-06T10:42:10;24.00;99.90
19999;DHT22;10160;50.926;4.374;2022-08-06T10:45:18;22.90;99.90
19999;DHT22;10160;50.926;4.374;2022-08-06T10:48:23;22.60;99.90
19999;DHT22;10160;50.926;4.374;2022-08-06T10:50:50;22.80;99.90
19999;DHT22;10160;50.926;4.374;2022-08-06T10:56:48;22.90;99.90
19999;DHT22;10160;50.926;4.374;2022-08-06T10:59:15;23.40;99.90
19999;DHT22;10160;50.926;4.374;2022-08-06T11:04:52;24.40;99.90
19999;DHT22;10160;50.926;4.374;2022-08-06T11:07:42;23.40;99.90
19999;DHT22;10160;50.926;4.374;2022-08-06T11:10:29;23.20;99.90
19999;DHT22;10160;50.926;4.374;2022-08-06T11:15:34;23.90;99.90
19999;DHT22;10160;50.926;4.374;2022-08-06T11:18:05;23.50;99.90
19999;DHT22;10160;50.926;4.374;2022-08-06T11:23:02;25.10;99.90
19999;DHT22;10160;50.926;4.374;2022-08-06T11:25:47;24.30;99.90
19999;DHT22;10160;50.926;4.374;2022-08-06T11:28:14;24.70;99.90
19999;DHT22;10160;50.926;4.374;2022-08-06T11:30:45;24.80;99.90
19999;DHT22;10160;50.926;4.374;2022-08-06T11:33:58;25.50;99.90
19999;DHT22;10160;50.926;4.374;2022-08-06T11:36:05;26.10;99.90
19999;DHT22;10160;50.926;4.374;2022-08-06T11:41:19;25.90;99.90
19999;DHT22;10160;50.926;4.374;2022-08-06T11:54:28;25.20;99.90
19999;DHT22;10160;50.926;4.374;2022-08-06T12:02:03;25.00;99.90
19999;DHT22;10160;50.926;4.374;2022-08-06T12:07:24;25.10;99.90
19999;DHT22;10160;50.926;4.374;2022-08-06T12:10:09;24.80;99.90
19999;DHT22;10160;50.926;4.374;2022-08-06T12:18:00;24.90;99.90
19999;DHT22;10160;50.926;4.374;2022-08-06T12:20:37;24.90;99.90
19999;DHT22;10160;50.926;4.374;2022-08-06T12:23:08;25.90;99.90
19999;DHT22;10160;50.926;4.374;2022-08-06T12:25:39;26.60;99.70
19999;DHT22;10160;50.926;4.374;2022-08-06T12:28:06;27.10;99.90
19999;DHT22;10160;50.926;4.374;2022-08-06T12:30:45;26.60;99.20
19999;DHT22;10160;50.926;4.374;2022-08-06T12:33:11;26.60;99.90
19999;DHT22;10160;50.926;4.374;2022-08-06T12:35:51;26.40;98.20
19999;DHT22;10160;50.926;4.374;2022-08-06T12:38:18;26.10;98.20
19999;DHT22;10160;50.926;4.374;2022-08-06T12:40:56;25.80;99.30
19999;DHT22;10160;50.926;4.374;2022-08-06T12:43:22;26.00;99.90
19999;DHT22;10160;50.926;4.374;2022-08-06T12:45:56;26.10;99.90
19999;DHT22;10160;50.926;4.374;2022-08-06T12:48:25;26.40;99.90
19999;DHT22;10160;50.926;4.374;2022-08-06T12:51:08;26.30;97.00
19999;DHT22;10160;50.926;4.374;2022-08-06T12:53:52;25.90;96.70
19999;DHT22;10160;50.926;4.374;2022-08-06T12:56:22;26.10;99.90
19999;DHT22;10160;50.926;4.374;2022-08-06T12:58:50;26.90;98.10
19999;DHT22;10160;50.926;4.374;2022-08-06T13:01:18;26.70;98.50
19999;DHT22;10160;50.926;4.374;2022-08-06T13:03:46;26.30;97.50
19999;DHT22;10160;50.926;4.374;2022-08-06T13:06:15;25.70;98.30
19999;DHT22;10160;50.926;4.374;2022-08-06T13:08:45;25.70;99.60
19999;DHT22;10160;50.926;4.374;2022-08-06T13:11:11;25.60;97.90
19999;DHT22;10160;50.926;4.374;2022-08-06T13:13:39;25.60;99.60
19999;DHT22;10160;50.926;4.374;2022-08-06T13:16:13;25.70;98.30
19999;DHT22;10160;50.926;4.374;2022-08-06T13:18:40;25.60;99.90
19999;DHT22;10160;50.926;4.374;2022-08-06T13:21:22;25.60;99.30
19999;DHT22;10160;50.926;4.374;2022-08-06T13:23:50;25.30;98.60
19999;DHT22;10160;50.926;4.374;2022-08-06T13:26:20;25.70;99.90
19999;DHT22;10160;50.926;4.374;2022-08-06T13:29:04;25.80;99.20
19999;DHT22;10160;50.926;4.374;2022-08-06T13:31:32;26.30;98.20
19999;DHT22;10160;50.926;4.374;2022-08-06T13:33:59;26.50;97.00
19999;DHT22;10160;50.926;4.374;2022-08-06T13:36:26;27.00;98.60
19999;DHT22;10160;50.926;4.374;2022-08-06T13:38:53;27.40;97.70
19999;DHT22;10160;50.926;4.374;2022-08-06T13:41:26;27.40;96.60
19999;DHT22;10160;50.926;4.374;2022-08-06T13:43:53;27.20;96.20
19999;DHT22;10160;50.926;4.374;2022-08-06T13:46:19;27.00;96.30
19999;DHT22;10160;50.926;4.374;2022-08-06T13:48:47;26.90;97.10
19999;DHT22;10160;50.926;4.374;2022-08-06T13:51:14;26.80;96.70
19999;DHT22;10160;50.926;4.374;2022-08-06T13:53:40;26.40;97.70
19999;DHT22;10160;50.926;4.374;2022-08-06T13:56:06;26.30;98.30
19999;DHT22;10160;50.926;4.374;2022-08-06T13:58:32;26.20;97.50
19999;DHT22;10160;50.926;4.374;2022-08-06T14:00:58;26.30;98.00
19999;DHT22;10160;50.926;4.374;2022-08-06T14:03:25;26.40;97.10
19999;DHT22;10160;50.926;4.374;2022-08-06T14:05:51;26.20;95.20
19999;DHT22;10160;50.926;4.374;2022-08-06T14:08:17;26.70;96.40
19999;DHT22;10160;50.926;4.374;2022-08-06T14:10:46;26.90;96.10
19999;DHT22;10160;50.926;4.374;2022-08-06T14:13:12;27.50;96.20
19999;DHT22;10160;50.926;4.374;2022-08-06T14:15:48;26.50;92.60
19999;DHT22;10160;50.926;4.374;2022-08-06T14:18:17;25.70;95.80
19999;DHT22;10160;50.926;4.374;2022-08-06T14:20:43;26.00;96.20
19999;DHT22;10160;50.926;4.374;2022-08-06T14:23:10;26.30;96.80
19999;DHT22;10160;50.926;4.374;2022-08-06T14:25:36;26.40;96.10
19999;DHT22;10160;50.926;4.374;2022-08-06T14:28:03;26.30;95.50
19999;DHT22;10160;50.926;4.374;2022-08-06T14:30:30;25.40;93.50
19999;DHT22;10160;50.926;4.374;2022-08-06T14:32:57;25.50;97.10
19999;DHT22;10160;50.926;4.374;2022-08-06T14:35:24;25.50;95.40
19999;DHT22;10160;50.926;4.374;2022-08-06T14:37:50;25.50;95.80
19999;DHT22;10160;50.926;4.374;2022-08-06T14:40:19;25.60;95.80
19999;DHT22;10160;50.926;4.374;2022-08-06T14:43:03;25.50;93.70
19999;DHT22;10160;50.926;4.374;2022-08-06T14:45:47;25.90;96.50
19999;DHT22;10160;50.926;4.374;2022-08-06T14:48:12;25.90;96.20
19999;DHT22;10160;50.926;4.374;2022-08-06T14:50:40;26.30;94.10
19999;DHT22;10160;50.926;4.374;2022-08-06T14:53:05;26.40;94.30
19999;DHT22;10160;50.926;4.374;2022-08-06T14:55:31;26.10;95.70
19999;DHT22;10160;50.926;4.374;2022-08-06T14:57:56;25.70;95.40
19999;DHT22;10160;50.926;4.374;2022-08-06T15:00:22;25.70;96.00
19999;DHT22;10160;50.926;4.374;2022-08-06T15:02:48;25.60;96.20
19999;DHT22;10160;50.926;4.374;2022-08-06T15:05:15;25.70;95.60
19999;DHT22;10160;50.926;4.374;2022-08-06T15:07:42;25.50;96.60
19999;DHT22;10160;50.926;4.374;2022-08-06T15:10:09;25.40;97.20
19999;DHT22;10160;50.926;4.374;2022-08-06T15:12:35;25.50;97.80
19999;DHT22;10160;50.926;4.374;2022-08-06T15:15:01;25.50;96.70
19999;DHT22;10160;50.926;4.374;2022-08-06T15:17:27;25.70;96.20
19999;DHT22;10160;50.926;4.374;2022-08-06T15:19:54;26.00;95.70
19999;DHT22;10160;50.926;4.374;2022-08-06T15:22:23;26.20;94.50
19999;DHT22;10160;50.926;4.374;2022-08-06T15:24:49;26.50;94.80
19999;DHT22;10160;50.926;4.374;2022-08-06T15:27:14;26.50;94.60
19999;DHT22;10160;50.926;4.374;2022-08-06T15:29:45;26.80;94.90
19999;DHT22;10160;50.926;4.374;2022-08-06T15:32:11;26.80;94.20
19999;DHT22;10160;50.926;4.374;2022-08-06T15:34:37;26.70;93.70
19999;DHT22;10160;50.926;4.374;2022-08-06T15:37:02;26.30;91.40
19999;DHT22;10160;50.926;4.374;2022-08-06T15:39:32;25.30;92.10
19999;DHT22;10160;50.926;4.374;2022-08-06T15:41:58;25.70;94.00
19999;DHT22;10160;50.926;4.374;2022-08-06T15:44:24;25.90;94.60
19999;DHT22;10160;50.926;4.374;2022-08-06T15:46:50;26.10;93.70
19999;DHT22;10160;50.926;4.374;2022-08-06T15:49:15;26.20;94.00
19999;DHT22;10160;50.926;4.374;2022-08-06T15:51:41;26.00;94.10
19999;DHT22;10160;50.926;4.374;2022-08-06T15:54:07;25.90;94.60
19999;DHT22;10160;50.926;4.374;2022-08-06T15:56:32;25.70;95.30
19999;DHT22;10160;50.926;4.374;2022-08-06T15:58:58;25.70;94.50
19999;DHT22;10160;50.926;4.374;2022-08-06T16:01:24;25.90;94.30
19999;DHT22;10160;50.926;4.374;2022-08-06T16:03:50;26.00;93.50
19999;DHT22;10160;50.926;4.374;2022-08-06T16:06:16;25.70;92.10
19999;DHT22;10160;50.926;4.374;2022-08-06T16:08:45;25.90;92.70
19999;DHT22;10160;50.926;4.374;2022-08-06T16:11:11;25.80;93.60
19999;DHT22;10160;50.926;4.374;2022-08-06T16:13:38;25.90;94.40
19999;DHT22;10160;50.926;4.374;2022-08-06T16:16:05;26.00;93.20
19999;DHT22;10160;50.926;4.374;2022-08-06T16:18:32;26.00;92.20
19999;DHT22;10160;50.926;4.374;2022-08-06T16:21:00;25.60;92.20
19999;DHT22;10160;50.926;4.374;2022-08-06T16:23:26;25.90;93.90
19999;DHT22;10160;50.926;4.374;2022-08-06T16:25:53;26.10;92.40
19999;DHT22;10160;50.926;4.374;2022-08-06T16:28:19;26.10;91.60
19999;DHT22;10160;50.926;4.374;2022-08-06T16:30:45;26.10;93.10
19999;DHT22;10160;50.926;4.374;2022-08-06T16:33:10;26.10;93.20
19999;DHT22;10160;50.926;4.374;2022-08-06T16:35:36;25.90;93.60
19999;DHT22;10160;50.926;4.374;2022-08-06T16:38:03;25.90;93.80
19999;DHT22;10160;50.926;4.374;2022-08-06T16:40:29;25.80;94.00
19999;DHT22;10160;50.926;4.374;2022-08-06T16:42:55;25.70;94.00
19999;DHT22;10160;50.926;4.374;2022-08-06T16:45:23;25.60;94.90
19999;DHT22;10160;50.926;4.374;2022-08-06T16:47:52;25.60;95.30
19999;DHT22;10160;50.926;4.374;2022-08-06T16:55:23;25.30;95.40
19999;DHT22;10160;50.926;4.374;2022-08-06T16:57:48;25.30;94.90
19999;DHT22;10160;50.926;4.374;2022-08-06T17:00:14;25.30;94.90
19999;DHT22;10160;50.926;4.374;2022-08-06T17:02:44;25.30;95.80
19999;DHT22;10160;50.926;4.374;2022-08-06T17:05:12;25.20;95.40
19999;DHT22;10160;50.926;4.374;2022-08-06T17:07:40;25.00;96.40
19999;DHT22;10160;50.926;4.374;2022-08-06T17:10:08;25.00;97.50
19999;DHT22;10160;50.926;4.374;2022-08-06T17:12:34;25.00;96.20
19999;DHT22;10160;50.926;4.374;2022-08-06T17:15:00;24.70;94.60
19999;DHT22;10160;50.926;4.374;2022-08-06T17:17:26;24.60;96.40
19999;DHT22;10160;50.926;4.374;2022-08-06T17:19:52;24.80;96.50
19999;DHT22;10160;50.926;4.374;2022-08-06T17:22:17;24.70;96.70
19999;DHT22;10160;50.926;4.374;2022-08-06T17:24:43;24.70;96.00
19999;DHT22;10160;50.926;4.374;2022-08-06T17:27:12;24.50;97.40
19999;DHT22;10160;50.926;4.374;2022-08-06T17:29:41;24.50;98.40
19999;DHT22;10160;50.926;4.374;2022-08-06T17:32:07;24.50;98.20
19999;DHT22;10160;50.926;4.374;2022-08-06T17:34:33;24.40;98.50
19999;DHT22;10160;50.926;4.374;2022-08-06T17:36:59;24.30;99.60
19999;DHT22;10160;50.926;4.374;2022-08-06T17:39:25;24.40;98.40
19999;DHT22;10160;50.926;4.374;2022-08-06T17:41:50;24.30;99.50
19999;DHT22;10160;50.926;4.374;2022-08-06T17:44:16;24.30;99.50
19999;DHT22;10160;50.926;4.374;2022-08-06T17:46:42;24.20;99.80
19999;DHT22;10160;50.926;4.374;2022-08-06T17:49:08;24.00;99.90
19999;DHT22;10160;50.926;4.374;2022-08-06T17:51:34;23.90;99.90
19999;DHT22;10160;50.926;4.374;2022-08-06T17:54:04;23.80;99.90
19999;DHT22;10160;50.926;4.374;2022-08-06T17:56:30;23.70;99.90
19999;DHT22;10160;50.926;4.374;2022-08-06T17:58:56;23.60;99.90
19999;DHT22;10160;50.926;4.374;2022-08-06T18:01:22;23.50;99.90
19999;DHT22;10160;50.926;4.374;2022-08-06T18:03:48;23.50;99.90
19999;DHT22;10160;50.926;4.374;2022-08-06T18:06:13;23.40;99.90
19999;DHT22;10160;50.926;4.374;2022-08-06T18:22:55;23.20;99.90
19999;DHT22;10160;50.926;4.374;2022-08-06T18:25:28;23.20;99.90
19999;DHT22;10160;50.926;4.374;2022-08-06T18:28:14;23.20;99.90
19999;DHT22;10160;50.926;4.374;2022-08-06T18:30:40;23.10;99.90
19999;DHT22;10160;50.926;4.374;2022-08-06T18:33:11;22.90;99.90
19999;DHT22;10160;50.926;4.374;2022-08-06T18:35:51;22.60;99.90
19999;DHT22;10160;50.926;4.374;2022-08-06T18:38:29;22.30;99.90
19999;DHT22;10160;50.926;4.374;2022-08-06T18:41:05;22.00;99.90
19999;DHT22;10160;50.926;4.374;2022-08-06T18:43:37;21.90;99.90
19999;DHT22;10160;50.926;4.374;2022-08-06T18:46:05;22.00;99.90
19999;DHT22;10160;50.926;4.374;2022-08-06T18:48:38;21.90;99.90
19999;DHT22;10160;50.926;4.374;2022-08-06T18:51:11;21.80;99.90
19999;DHT22;10160;50.926;4.374;2022-08-06T18:53:53;21.60;99.90